Time;durP1;ratioP1;P1;durP2;ratioP2;P2;SDS_P1;SDS_P2;PMS_P1;PMS_P2;Temp;Humidity;BMP_temperature;BMP_pressure;BME280_temperature;BME280_humidity;BME280_pressure;Samples;Min_cycle;Max_cycle;Signal;HPM_P1;HPM_P2
2024/01/30 00:01:41;;;;;;;8.20;6.78;;;2.80;99.90;;;;;;4909450;28;20041;-57
2024/01/30 00:04:07;;;;;;;10.60;7.07;;;2.80;99.90;;;;;;4942850;28;20035;-60
2024/01/30 00:06:32;;;;;;;10.60;7.68;;;2.80;99.90;;;;;;4919637;28;20058;-60
2024/01/30 00:08:58;;;;;;;9.93;6.22;;;2.80;99.90;;;;;;4905939;28;20027;-57
2024/01/30 00:11:25;;;;;;;9.57;6.75;;;2.70;99.90;;;;;;4906114;28;20114;-59
2024/01/30 00:13:51;;;;;;;10.85;7.00;;;2.70;99.90;;;;;;4910660;28;21477;-58
2024/01/30 00:16:24;;;;;;;12.05;7.88;;;2.70;99.90;;;;;;4942723;28;20039;-60
2024/01/30 00:18:53;;;;;;;12.45;8.25;;;2.70;99.90;;;;;;4909364;28;20030;-63
2024/01/30 00:21:19;;;;;;;11.45;7.40;;;2.70;99.90;;;;;;4915864;28;20542;-57
2024/01/30 00:23:45;;;;;;;10.05;6.95;;;2.60;99.90;;;;;;4903711;28;20035;-60
2024/01/30 00:26:17;;;;;;;12.25;7.45;;;2.60;99.90;;;;;;4901121;28;20041;-60
2024/01/30 00:28:42;;;;;;;10.38;6.38;;;2.60;99.90;;;;;;4902699;28;20150;-60
2024/01/30 00:31:12;;;;;;;10.80;6.70;;;2.60;99.90;;;;;;4942916;28;20117;-60
2024/01/30 00:33:41;;;;;;;8.68;6.22;;;2.60;99.90;;;;;;4910819;28;20043;-57
2024/01/30 00:36:08;;;;;;;9.68;7.07;;;2.60;99.90;;;;;;4894507;28;20034;-59
2024/01/30 00:38:34;;;;;;;8.52;6.05;;;2.60;99.90;;;;;;4905633;28;20031;-60
2024/01/30 00:41:01;;;;;;;8.40;6.38;;;2.60;99.90;;;;;;4886504;28;20559;-59
2024/01/30 00:43:27;;;;;;;9.20;6.80;;;2.60;99.90;;;;;;4933277;28;20027;-61
2024/01/30 00:45:53;;;;;;;9.75;6.13;;;2.60;99.90;;;;;;4909482;28;20046;-59
2024/01/30 00:48:19;;;;;;;8.10;6.53;;;2.60;99.90;;;;;;4904881;28;20070;-61
2024/01/30 00:50:44;;;;;;;8.68;6.35;;;2.60;99.90;;;;;;4901714;28;20126;-59
2024/01/30 00:53:10;;;;;;;10.75;7.30;;;2.50;99.90;;;;;;4908692;28;20062;-58
2024/01/30 00:55:36;;;;;;;7.20;6.07;;;2.50;99.90;;;;;;4898294;28;20027;-61
2024/01/30 00:58:02;;;;;;;9.27;6.18;;;2.50;99.90;;;;;;4946839;28;20592;-59
2024/01/30 01:00:29;;;;;;;9.60;6.43;;;2.50;99.90;;;;;;4966540;23;22260;-52
2024/01/30 01:02:57;;;;;;;9.18;5.80;;;2.50;99.90;;;;;;4947687;28;20562;-52
2024/01/30 01:05:23;;;;;;;8.25;6.57;;;2.50;99.90;;;;;;4948531;28;20045;-49
2024/01/30 01:07:49;;;;;;;8.40;5.70;;;2.50;99.90;;;;;;4944736;28;21671;-54
2024/01/30 01:10:15;;;;;;;8.32;5.97;;;2.50;99.90;;;;;;4989286;28;20038;-54
2024/01/30 01:12:41;;;;;;;9.15;6.35;;;2.40;99.90;;;;;;4955214;28;20019;-54
2024/01/30 01:15:09;;;;;;;9.38;7.30;;;2.40;99.90;;;;;;4954232;28;20029;-50
2024/01/30 01:17:35;;;;;;;7.82;6.10;;;2.40;99.90;;;;;;4951474;28;20053;-54
2024/01/30 01:20:01;;;;;;;10.05;6.45;;;2.40;99.90;;;;;;4952944;28;20052;-55
2024/01/30 01:22:27;;;;;;;8.27;5.97;;;2.40;99.90;;;;;;4993040;28;20052;-60
2024/01/30 01:24:53;;;;;;;7.22;6.22;;;2.30;99.90;;;;;;4938656;28;20034;-53
2024/01/30 01:27:18;;;;;;;9.90;6.95;;;2.40;99.90;;;;;;4949982;28;20033;-54
2024/01/30 01:29:45;;;;;;;8.77;6.32;;;2.40;99.90;;;;;;4940528;28;20033;-53
2024/01/30 01:32:10;;;;;;;8.38;6.00;;;2.40;99.90;;;;;;4942181;28;20041;-54
2024/01/30 01:34:36;;;;;;;9.85;6.63;;;2.30;99.90;;;;;;4958463;28;20401;-58
2024/01/30 01:37:02;;;;;;;7.40;6.07;;;2.30;99.90;;;;;;4988576;28;20104;-52
2024/01/30 01:39:27;;;;;;;9.63;6.38;;;2.30;99.90;;;;;;4942291;28;20022;-53
2024/01/30 01:41:53;;;;;;;11.15;6.88;;;2.30;99.90;;;;;;4910250;28;20034;-51
2024/01/30 01:44:19;;;;;;;9.38;6.32;;;2.30;99.90;;;;;;4942188;28;20029;-53
2024/01/30 01:46:44;;;;;;;9.23;6.75;;;2.40;99.90;;;;;;4943289;28;20026;-54
2024/01/30 01:49:11;;;;;;;10.75;6.40;;;2.30;99.90;;;;;;4993940;28;20057;-51
2024/01/30 01:51:37;;;;;;;10.75;6.15;;;2.30;99.90;;;;;;4940927;28;20113;-53
2024/01/30 01:54:06;;;;;;;8.13;5.85;;;2.40;99.90;;;;;;4937522;28;20053;-53
2024/01/30 01:56:34;;;;;;;8.70;5.82;;;2.40;99.90;;;;;;4936154;28;20026;-51
2024/01/30 01:59:10;;;;;;;7.55;6.18;;;2.40;99.90;;;;;;4936788;28;21761;-51
2024/01/30 02:01:41;;;;;;;9.77;6.05;;;2.40;99.90;;;;;;4963098;28;20556;-58
2024/01/30 02:04:07;;;;;;;8.15;6.45;;;2.40;99.90;;;;;;4997690;28;20430;-53
2024/01/30 02:06:37;;;;;;;7.72;5.70;;;2.40;99.90;;;;;;4937916;28;20080;-53
2024/01/30 02:09:04;;;;;;;8.25;6.47;;;2.40;99.90;;;;;;4936635;28;20103;-52
2024/01/30 02:11:30;;;;;;;7.22;5.63;;;2.50;99.90;;;;;;4938594;28;20080;-50
2024/01/30 02:13:56;;;;;;;8.52;6.28;;;2.50;99.90;;;;;;4934255;28;21783;-50
2024/01/30 02:16:21;;;;;;;7.40;6.60;;;2.50;99.90;;;;;;4995616;28;20108;-53
2024/01/30 02:18:47;;;;;;;7.22;5.90;;;2.50;99.90;;;;;;4936425;28;20050;-53
2024/01/30 02:21:17;;;;;;;9.55;5.93;;;2.50;99.90;;;;;;4937784;28;20093;-53
2024/01/30 02:23:46;;;;;;;8.02;5.68;;;2.50;99.90;;;;;;4930800;28;20029;-51
2024/01/30 02:26:12;;;;;;;7.38;5.47;;;2.50;99.90;;;;;;4929537;28;20029;-49
2024/01/30 02:28:38;;;;;;;6.82;5.72;;;2.50;99.90;;;;;;4952476;28;20029;-60
2024/01/30 02:31:04;;;;;;;7.47;5.47;;;2.50;99.90;;;;;;4975246;28;20089;-55
2024/01/30 02:33:30;;;;;;;9.93;6.18;;;2.50;99.90;;;;;;4936723;28;20023;-53
2024/01/30 02:35:55;;;;;;;7.70;5.50;;;2.50;99.90;;;;;;4937602;28;20422;-52
2024/01/30 02:38:21;;;;;;;6.93;5.70;;;2.40;99.90;;;;;;4928732;28;20037;-53
2024/01/30 02:40:46;;;;;;;6.97;5.63;;;2.40;99.90;;;;;;4936552;28;21569;-52
2024/01/30 02:43:12;;;;;;;8.27;5.18;;;2.40;99.90;;;;;;4980401;28;20029;-52
2024/01/30 02:45:37;;;;;;;6.55;5.38;;;2.40;99.90;;;;;;4934744;28;20041;-51
2024/01/30 02:48:03;;;;;;;7.35;5.65;;;2.40;99.90;;;;;;4925230;28;20046;-56
2024/01/30 02:50:29;;;;;;;7.40;5.65;;;2.40;99.90;;;;;;4926578;28;20494;-52
2024/01/30 02:52:54;;;;;;;9.18;5.50;;;2.40;99.90;;;;;;4924642;28;21484;-53
2024/01/30 02:55:20;;;;;;;8.55;5.32;;;2.30;99.90;;;;;;4992571;28;20042;-53
2024/01/30 02:57:46;;;;;;;7.68;6.00;;;2.30;99.90;;;;;;4934880;28;21405;-52
2024/01/30 03:00:12;;;;;;;7.20;4.70;;;2.30;99.90;;;;;;4923656;28;20034;-54
2024/01/30 03:02:37;;;;;;;11.35;5.95;;;2.30;99.90;;;;;;4926316;28;20044;-52
2024/01/30 03:05:04;;;;;;;7.57;5.53;;;2.30;99.90;;;;;;4929255;28;20061;-51
2024/01/30 03:07:30;;;;;;;6.10;5.50;;;2.20;99.90;;;;;;4977872;28;20022;-59
2024/01/30 03:09:55;;;;;;;8.82;5.70;;;2.20;99.90;;;;;;4956100;28;20026;-53
2024/01/30 03:12:21;;;;;;;6.30;5.15;;;2.20;99.90;;;;;;4933164;28;20041;-55
2024/01/30 03:14:47;;;;;;;6.95;5.65;;;2.20;99.90;;;;;;4931173;28;20120;-52
2024/01/30 03:17:13;;;;;;;7.55;5.68;;;2.20;99.90;;;;;;4931180;28;20025;-53
2024/01/30 03:19:39;;;;;;;7.78;5.53;;;2.10;99.90;;;;;;4963749;28;20528;-58
2024/01/30 03:22:04;;;;;;;7.65;5.95;;;2.10;99.90;;;;;;4974603;28;20029;-53
2024/01/30 03:24:30;;;;;;;9.70;5.82;;;2.10;99.90;;;;;;4948597;28;20156;-48
2024/01/30 03:26:56;;;;;;;8.50;5.57;;;2.10;99.90;;;;;;4926865;28;20042;-51
2024/01/30 03:29:21;;;;;;;8.15;5.18;;;2.10;99.90;;;;;;4930433;28;20038;-54
2024/01/30 03:31:47;;;;;;;6.28;5.45;;;2.10;99.90;;;;;;4928150;28;20045;-52
2024/01/30 03:34:12;;;;;;;6.68;5.60;;;2.10;99.90;;;;;;4993539;28;20031;-53
2024/01/30 03:36:38;;;;;;;9.32;5.72;;;2.10;99.90;;;;;;4942210;28;20030;-51
2024/01/30 03:39:04;;;;;;;7.90;5.03;;;2.10;99.90;;;;;;4933083;28;20069;-52
2024/01/30 03:41:29;;;;;;;5.53;4.82;;;2.10;99.90;;;;;;4938746;28;20054;-52
2024/01/30 03:43:55;;;;;;;9.15;5.40;;;2.10;99.90;;;;;;4947724;28;20726;-53
2024/01/30 03:46:21;;;;;;;5.90;4.45;;;2.00;99.90;;;;;;4960702;28;20111;-53
2024/01/30 03:48:46;;;;;;;8.38;5.13;;;2.00;99.90;;;;;;4953441;28;20108;-52
2024/01/30 03:51:14;;;;;;;8.73;5.00;;;2.00;99.90;;;;;;4928064;28;20038;-52
2024/01/30 03:53:41;;;;;;;7.22;5.00;;;2.00;99.90;;;;;;4922847;28;20092;-53
2024/01/30 03:56:07;;;;;;;11.43;6.05;;;2.00;99.90;;;;;;4946698;28;20116;-51
2024/01/30 03:58:33;;;;;;;9.02;6.28;;;2.00;99.90;;;;;;4970782;28;20065;-58
2024/01/30 04:00:58;;;;;;;8.13;6.18;;;2.00;99.90;;;;;;4936106;28;20533;-50
2024/01/30 04:03:24;;;;;;;7.45;5.13;;;1.90;99.90;;;;;;4933948;28;20034;-53
2024/01/30 04:05:52;;;;;;;8.98;5.45;;;1.90;99.90;;;;;;4921066;28;22053;-53
2024/01/30 04:08:18;;;;;;;7.80;5.97;;;1.90;99.90;;;;;;4932090;28;20068;-56
2024/01/30 04:10:43;;;;;;;7.32;5.63;;;1.90;99.90;;;;;;4929607;28;20045;-57
2024/01/30 04:13:09;;;;;;;8.23;5.28;;;1.90;99.90;;;;;;4978875;28;20033;-53
2024/01/30 04:15:35;;;;;;;7.22;5.60;;;1.90;99.90;;;;;;4945960;28;20482;-54
2024/01/30 04:18:00;;;;;;;7.80;5.43;;;1.90;99.90;;;;;;4930653;28;20036;-51
2024/01/30 04:20:26;;;;;;;7.75;6.18;;;1.90;99.90;;;;;;4942823;28;20037;-51
2024/01/30 04:22:51;;;;;;;8.77;5.55;;;1.90;99.90;;;;;;4925552;28;22175;-54
2024/01/30 04:25:17;;;;;;;9.20;5.68;;;1.90;99.90;;;;;;4980191;28;20076;-56
2024/01/30 04:27:42;;;;;;;8.35;6.07;;;1.80;99.90;;;;;;4923150;28;20576;-51
2024/01/30 04:30:08;;;;;;;7.97;5.57;;;1.80;99.90;;;;;;4920991;28;20465;-53
2024/01/30 04:32:35;;;;;;;8.00;6.05;;;1.80;99.90;;;;;;4917379;28;20030;-52
2024/01/30 04:35:00;;;;;;;7.82;5.95;;;1.80;99.90;;;;;;4954962;28;20022;-51
2024/01/30 04:37:26;;;;;;;9.93;6.30;;;1.80;99.90;;;;;;4983298;28;20157;-50
2024/01/30 04:39:51;;;;;;;9.07;5.90;;;1.80;99.90;;;;;;4907614;28;20498;-54
2024/01/30 04:42:17;;;;;;;7.82;5.75;;;1.70;99.90;;;;;;4922353;28;20026;-54
2024/01/30 04:44:43;;;;;;;9.02;6.15;;;1.70;99.90;;;;;;4908331;28;20088;-52
2024/01/30 04:47:11;;;;;;;7.70;5.45;;;1.70;99.90;;;;;;4932857;28;20025;-54
2024/01/30 04:49:36;;;;;;;6.68;5.53;;;1.70;99.90;;;;;;4951870;28;20125;-58
2024/01/30 04:52:02;;;;;;;8.88;5.35;;;1.70;99.90;;;;;;4947072;28;20431;-52
2024/01/30 04:54:28;;;;;;;8.45;5.85;;;1.60;99.90;;;;;;4915502;28;20026;-51
2024/01/30 04:56:53;;;;;;;9.02;6.30;;;1.60;99.90;;;;;;4930037;28;20125;-51
2024/01/30 04:59:19;;;;;;;7.15;5.75;;;1.60;99.90;;;;;;4925552;28;20022;-51
2024/01/30 05:01:45;;;;;;;7.38;5.40;;;1.60;99.90;;;;;;4905252;28;20548;-59
2024/01/30 05:04:11;;;;;;;8.38;5.70;;;1.60;99.90;;;;;;4964029;28;20532;-51
2024/01/30 05:06:37;;;;;;;10.15;5.90;;;1.60;99.90;;;;;;4912425;28;20101;-53
2024/01/30 05:09:04;;;;;;;8.45;6.05;;;1.60;99.90;;;;;;4905357;28;20409;-51
2024/01/30 05:11:30;;;;;;;8.85;6.15;;;1.60;99.90;;;;;;4907088;28;20018;-59
2024/01/30 05:13:55;;;;;;;8.52;6.65;;;1.60;99.90;;;;;;4932773;28;21474;-54
2024/01/30 05:16:21;;;;;;;8.30;6.57;;;1.60;99.90;;;;;;4968655;28;20407;-52
2024/01/30 05:18:46;;;;;;;9.50;6.63;;;1.60;99.90;;;;;;4974199;28;20030;-54
2024/01/30 05:21:12;;;;;;;9.77;6.25;;;1.60;99.90;;;;;;4970058;28;20498;-54
2024/01/30 05:23:38;;;;;;;8.30;6.15;;;1.60;99.90;;;;;;4957924;28;20030;-53
2024/01/30 05:26:03;;;;;;;11.40;7.18;;;1.60;99.90;;;;;;5000133;28;20482;-52
2024/01/30 05:28:30;;;;;;;9.45;6.47;;;1.70;99.90;;;;;;4971191;28;20120;-53
2024/01/30 05:30:56;;;;;;;10.88;7.60;;;1.70;99.90;;;;;;4958389;28;20026;-53
2024/01/30 05:33:21;;;;;;;8.63;6.60;;;1.70;99.90;;;;;;4970184;28;20029;-54
2024/01/30 05:35:48;;;;;;;8.95;6.43;;;1.80;99.90;;;;;;4969134;28;21847;-54
2024/01/30 05:38:15;;;;;;;8.70;6.53;;;1.80;99.90;;;;;;4995108;28;20026;-51
2024/01/30 05:40:40;;;;;;;9.98;6.50;;;1.80;99.90;;;;;;4956739;28;20076;-52
2024/01/30 05:43:07;;;;;;;14.63;7.43;;;1.90;99.90;;;;;;4964738;28;20030;-51
2024/01/30 05:45:34;;;;;;;11.68;7.22;;;1.90;99.90;;;;;;4972661;28;20029;-55
2024/01/30 05:47:59;;;;;;;10.65;7.75;;;1.90;99.90;;;;;;4964446;28;20511;-52
2024/01/30 05:50:26;;;;;;;9.40;6.75;;;1.90;99.90;;;;;;4993437;28;20036;-52
2024/01/30 05:52:51;;;;;;;11.57;7.75;;;2.00;99.90;;;;;;4936891;28;20030;-54
2024/01/30 05:55:17;;;;;;;8.95;6.97;;;2.00;99.90;;;;;;4967838;28;20454;-53
2024/01/30 05:57:42;;;;;;;10.57;8.13;;;2.00;99.90;;;;;;4966338;28;20087;-52
2024/01/30 06:00:08;;;;;;;12.07;7.60;;;2.10;99.90;;;;;;4966235;28;20036;-51
2024/01/30 06:02:34;;;;;;;14.45;8.05;;;2.10;99.90;;;;;;4964173;28;20030;-54
2024/01/30 06:04:59;;;;;;;9.00;7.13;;;2.10;99.90;;;;;;4997916;28;20100;-52
2024/01/30 06:07:25;;;;;;;10.55;7.72;;;2.20;99.90;;;;;;4969450;28;20105;-50
2024/01/30 06:09:51;;;;;;;10.18;7.32;;;2.20;99.90;;;;;;4964611;28;20036;-52
2024/01/30 06:12:16;;;;;;;13.05;7.93;;;2.20;99.90;;;;;;4960457;28;20496;-51
2024/01/30 06:14:42;;;;;;;12.45;8.43;;;2.20;99.90;;;;;;4956458;28;20022;-51
2024/01/30 06:17:08;;;;;;;11.32;8.57;;;2.20;99.90;;;;;;4999401;28;21568;-53
2024/01/30 06:19:34;;;;;;;12.30;7.60;;;2.20;99.90;;;;;;4959821;28;20019;-51
2024/01/30 06:22:00;;;;;;;9.77;7.30;;;2.20;99.90;;;;;;4956874;28;20079;-51
2024/01/30 06:24:25;;;;;;;10.38;7.88;;;2.20;99.90;;;;;;4952879;28;20084;-50
2024/01/30 06:26:51;;;;;;;11.15;8.00;;;2.20;99.90;;;;;;4962453;28;21230;-53
2024/01/30 06:29:16;;;;;;;10.32;7.32;;;2.20;99.90;;;;;;4989728;28;20029;-52
2024/01/30 06:31:42;;;;;;;13.75;8.35;;;2.20;99.90;;;;;;4966275;28;20030;-52
2024/01/30 06:34:11;;;;;;;10.45;7.78;;;2.20;99.90;;;;;;4956134;28;20109;-50
2024/01/30 06:36:37;;;;;;;11.52;8.00;;;2.30;99.90;;;;;;4957417;28;20030;-52
2024/01/30 06:39:03;;;;;;;11.43;7.70;;;2.30;99.90;;;;;;4961857;28;20578;-55
2024/01/30 06:41:29;;;;;;;14.82;8.02;;;2.30;99.90;;;;;;4979518;28;20030;-59
2024/01/30 06:43:55;;;;;;;11.38;8.07;;;2.30;99.90;;;;;;4973857;28;20092;-50
2024/01/30 06:46:21;;;;;;;11.98;8.68;;;2.40;99.90;;;;;;4963694;28;20060;-50
2024/01/30 06:48:46;;;;;;;14.20;8.52;;;2.40;99.90;;;;;;4949184;28;20077;-52
2024/01/30 06:51:12;;;;;;;11.05;8.70;;;2.40;99.90;;;;;;4951933;28;20065;-54
2024/01/30 06:53:38;;;;;;;13.98;9.82;;;2.40;99.90;;;;;;4955858;28;20026;-56
2024/01/30 06:56:04;;;;;;;9.80;7.85;;;2.50;99.90;;;;;;4989242;28;20022;-51
2024/01/30 06:58:29;;;;;;;13.10;8.30;;;2.50;99.90;;;;;;4964272;28;20461;-52
2024/01/30 07:00:56;;;;;;;13.23;9.10;;;2.50;99.90;;;;;;4956406;23;20046;-59
2024/01/30 07:03:21;;;;;;;11.55;7.65;;;2.50;99.90;;;;;;4939048;28;20080;-59
2024/01/30 07:05:47;;;;;;;9.60;7.88;;;2.50;99.90;;;;;;4927460;28;21224;-59
2024/01/30 07:08:13;;;;;;;11.75;7.78;;;2.50;99.90;;;;;;4981766;28;20439;-60
2024/01/30 07:10:38;;;;;;;19.38;9.45;;;2.50;99.90;;;;;;4941751;28;20189;-61
2024/01/30 07:13:05;;;;;;;11.57;8.85;;;2.50;99.90;;;;;;4932860;28;20073;-61
2024/01/30 07:15:31;;;;;;;11.73;8.45;;;2.50;99.90;;;;;;4924229;28;20053;-61
2024/01/30 07:17:57;;;;;;;14.02;8.15;;;2.50;99.90;;;;;;4925112;28;20029;-61
2024/01/30 07:20:22;;;;;;;11.52;8.70;;;2.50;99.90;;;;;;4983036;28;20050;-61
2024/01/30 07:22:48;;;;;;;11.77;7.85;;;2.50;99.90;;;;;;4941723;28;20491;-61
2024/01/30 07:25:13;;;;;;;13.85;8.70;;;2.60;99.90;;;;;;4919729;28;20093;-61
2024/01/30 07:27:39;;;;;;;12.40;9.30;;;2.60;99.90;;;;;;4950707;28;20056;-62
2024/01/30 07:30:05;;;;;;;11.77;8.80;;;2.60;99.90;;;;;;4922940;28;20109;-61
2024/01/30 07:32:31;;;;;;;12.48;8.93;;;2.60;99.90;;;;;;4962690;28;20081;-62
2024/01/30 07:34:57;;;;;;;14.75;8.70;;;2.60;99.90;;;;;;4947918;28;20038;-60
2024/01/30 07:37:23;;;;;;;12.68;8.40;;;2.60;99.90;;;;;;4934153;28;20030;-58
2024/01/30 07:39:48;;;;;;;15.38;9.10;;;2.70;99.90;;;;;;4930008;28;20033;-58
2024/01/30 07:42:14;;;;;;;13.93;9.50;;;2.70;99.90;;;;;;4932386;28;20030;-58
2024/01/30 07:44:39;;;;;;;13.05;8.40;;;2.70;99.90;;;;;;4917369;28;20064;-59
2024/01/30 07:47:05;;;;;;;14.00;8.40;;;2.70;99.90;;;;;;4982007;28;20035;-58
2024/01/30 07:49:32;;;;;;;13.93;9.07;;;2.70;99.90;;;;;;4935441;28;20022;-58
2024/01/30 07:51:58;;;;;;;13.32;9.55;;;2.70;99.90;;;;;;4919401;28;20709;-59
2024/01/30 07:54:23;;;;;;;10.70;8.00;;;2.80;99.90;;;;;;4928063;28;20106;-58
2024/01/30 07:56:49;;;;;;;13.75;9.20;;;2.80;99.90;;;;;;4919023;28;21513;-60
2024/01/30 07:59:15;;;;;;;17.48;8.93;;;2.80;99.90;;;;;;4976170;28;20057;-59
2024/01/30 08:01:41;;;;;;;11.85;8.65;;;2.80;99.90;;;;;;4932871;28;20081;-59
2024/01/30 08:04:06;;;;;;;13.77;9.05;;;2.90;99.90;;;;;;4927066;28;20046;-60
2024/01/30 08:06:33;;;;;;;14.02;9.63;;;2.90;99.90;;;;;;4920400;28;20118;-59
2024/01/30 08:08:59;;;;;;;15.10;9.88;;;2.90;99.90;;;;;;4897902;28;20034;-60
2024/01/30 08:11:26;;;;;;;16.65;10.70;;;3.00;99.90;;;;;;4984363;28;20077;-60
2024/01/30 08:13:55;;;;;;;14.52;9.82;;;3.00;99.90;;;;;;4929091;28;20027;-60
2024/01/30 08:16:20;;;;;;;15.15;9.85;;;3.10;99.90;;;;;;4928613;28;20033;-60
2024/01/30 08:18:46;;;;;;;16.20;10.82;;;3.10;99.90;;;;;;4902674;28;20050;-60
2024/01/30 08:21:11;;;;;;;15.38;9.40;;;3.20;99.90;;;;;;4905582;28;20450;-59
2024/01/30 08:23:39;;;;;;;13.70;9.30;;;3.20;99.90;;;;;;4936747;28;20622;-61
2024/01/30 08:26:05;;;;;;;15.00;10.10;;;3.30;99.90;;;;;;4982821;28;20030;-59
2024/01/30 08:28:31;;;;;;;12.40;9.88;;;3.30;99.90;;;;;;4923297;28;20019;-59
2024/01/30 08:30:57;;;;;;;14.70;9.57;;;3.40;99.90;;;;;;4924846;28;20522;-59
2024/01/30 08:33:22;;;;;;;14.55;9.70;;;3.40;99.90;;;;;;4921464;28;20472;-58
2024/01/30 08:35:48;;;;;;;14.00;10.32;;;3.50;99.90;;;;;;4903699;28;21415;-59
2024/01/30 08:38:14;;;;;;;15.40;10.02;;;3.50;99.90;;;;;;4980827;28;20026;-59
2024/01/30 08:40:39;;;;;;;18.20;10.77;;;3.60;99.90;;;;;;4927263;28;20041;-58
2024/01/30 08:43:05;;;;;;;15.23;10.50;;;3.60;99.90;;;;;;4924387;28;20054;-56
2024/01/30 08:45:30;;;;;;;13.40;10.30;;;3.70;99.90;;;;;;4923190;28;20038;-61
2024/01/30 08:47:56;;;;;;;16.15;11.18;;;3.80;99.90;;;;;;4921389;28;22036;-59
2024/01/30 08:50:22;;;;;;;14.50;9.68;;;3.80;99.90;;;;;;4981218;28;20508;-60
2024/01/30 08:52:47;;;;;;;14.13;9.63;;;3.90;99.90;;;;;;4920752;28;20081;-60
2024/01/30 08:55:13;;;;;;;15.40;10.27;;;3.90;99.90;;;;;;4918323;28;20070;-60
2024/01/30 08:57:39;;;;;;;19.55;10.77;;;4.00;99.90;;;;;;4909539;28;20018;-59
2024/01/30 09:00:06;;;;;;;16.55;11.60;;;4.10;99.90;;;;;;4920005;28;20677;-59
2024/01/30 09:02:33;;;;;;;17.88;11.45;;;4.20;99.90;;;;;;4959823;28;20126;-61
2024/01/30 09:04:59;;;;;;;15.25;10.90;;;4.20;99.90;;;;;;4949010;28;20133;-60
2024/01/30 09:07:24;;;;;;;16.33;10.55;;;4.30;99.90;;;;;;4918474;28;20360;-60
2024/01/30 09:09:50;;;;;;;14.77;10.50;;;4.40;99.90;;;;;;4914597;28;20461;-60
2024/01/30 09:12:16;;;;;;;14.68;10.60;;;4.40;99.90;;;;;;4909819;28;20085;-58
2024/01/30 09:14:41;;;;;;;16.33;10.50;;;4.40;99.90;;;;;;4915951;28;20665;-61
2024/01/30 09:17:08;;;;;;;14.98;9.82;;;4.50;99.90;;;;;;4978608;28;20073;-60
2024/01/30 09:19:33;;;;;;;15.05;11.10;;;4.50;99.90;;;;;;4918667;28;20014;-60
2024/01/30 09:21:59;;;;;;;16.55;10.20;;;4.50;99.90;;;;;;4941909;28;20057;-58
2024/01/30 09:24:26;;;;;;;17.45;11.20;;;4.60;99.90;;;;;;4915184;28;20030;-60
2024/01/30 09:26:52;;;;;;;15.45;10.35;;;4.70;99.90;;;;;;4911706;28;21577;-61
2024/01/30 09:29:17;;;;;;;14.52;10.63;;;4.70;99.90;;;;;;4965097;28;20034;-60
2024/01/30 09:31:46;;;;;;;12.75;9.90;;;4.80;99.90;;;;;;4914087;28;20536;-60
2024/01/30 09:34:12;;;;;;;15.98;10.25;;;4.80;99.90;;;;;;4922274;28;20111;-60
2024/01/30 09:36:38;;;;;;;15.45;10.85;;;4.90;99.90;;;;;;4947413;28;20029;-60
2024/01/30 09:39:04;;;;;;;15.73;10.35;;;4.90;99.90;;;;;;4940820;28;20029;-60
2024/01/30 09:41:32;;;;;;;12.90;10.32;;;5.00;99.90;;;;;;4967194;28;20066;-59
2024/01/30 09:44:02;;;;;;;14.02;10.00;;;5.10;99.90;;;;;;4920149;28;20042;-59
2024/01/30 09:46:30;;;;;;;14.95;10.38;;;5.20;99.90;;;;;;4948656;28;20030;-61
2024/01/30 09:48:58;;;;;;;16.85;11.38;;;5.20;99.90;;;;;;4911846;28;20053;-60
2024/01/30 09:51:25;;;;;;;16.55;11.07;;;5.30;99.90;;;;;;4930538;28;20525;-60
2024/01/30 09:53:51;;;;;;;14.60;11.45;;;5.30;99.90;;;;;;4945489;28;20143;-60
2024/01/30 09:56:17;;;;;;;17.00;10.65;;;5.40;99.90;;;;;;4966890;28;20109;-61
2024/01/30 09:58:43;;;;;;;14.60;11.13;;;5.50;99.90;;;;;;4916311;28;20025;-59
2024/01/30 10:01:08;;;;;;;16.48;11.43;;;5.50;99.90;;;;;;4928617;28;20081;-60
2024/01/30 10:03:34;;;;;;;15.23;10.48;;;5.60;99.90;;;;;;4928610;28;20065;-59
2024/01/30 10:06:01;;;;;;;14.80;10.57;;;5.70;99.90;;;;;;4914055;28;20035;-60
2024/01/30 10:08:27;;;;;;;15.73;10.68;;;5.70;99.90;;;;;;4967376;28;20088;-59
2024/01/30 10:10:52;;;;;;;14.07;9.98;;;5.80;99.90;;;;;;4934242;28;20509;-60
2024/01/30 10:13:18;;;;;;;18.48;11.30;;;5.80;99.90;;;;;;4913315;28;20030;-60
2024/01/30 10:15:45;;;;;;;14.95;10.10;;;5.90;99.90;;;;;;4902886;28;20579;-60
2024/01/30 10:18:10;;;;;;;15.70;10.23;;;6.00;99.90;;;;;;4947238;28;20081;-60
2024/01/30 10:20:36;;;;;;;13.85;10.65;;;6.00;99.90;;;;;;4927672;28;20070;-61
2024/01/30 10:23:03;;;;;;;16.05;10.80;;;6.10;99.90;;;;;;4954099;28;20053;-59
2024/01/30 10:25:30;;;;;;;15.35;10.77;;;6.20;99.90;;;;;;4910029;28;20015;-60
2024/01/30 10:27:56;;;;;;;13.70;10.73;;;6.20;99.90;;;;;;4913819;28;20049;-60
2024/01/30 10:30:22;;;;;;;22.42;10.88;;;6.30;99.90;;;;;;4932255;28;20487;-59
2024/01/30 10:32:48;;;;;;;17.00;10.90;;;6.40;99.90;;;;;;4890755;28;20034;-60
2024/01/30 10:35:14;;;;;;;16.02;10.30;;;6.50;99.90;;;;;;4952728;28;20026;-60
2024/01/30 10:37:40;;;;;;;17.83;10.85;;;6.50;99.90;;;;;;4933464;28;20110;-60
2024/01/30 10:40:07;;;;;;;14.00;10.15;;;6.60;99.90;;;;;;4920359;28;20084;-59
2024/01/30 10:42:36;;;;;;;13.77;9.55;;;6.70;99.90;;;;;;4894379;28;20315;-58
2024/01/30 10:45:14;;;;;;;18.70;11.18;;;6.70;99.90;;;;;;4945607;28;20041;-59
2024/01/30 10:47:43;;;;;;;12.15;9.95;;;6.90;99.90;;;;;;4931055;28;20076;-60
2024/01/30 10:50:10;;;;;;;12.95;9.43;;;6.90;99.90;;;;;;4944847;28;21551;-59
2024/01/30 10:52:36;;;;;;;16.73;10.70;;;6.90;99.90;;;;;;4901163;28;20065;-59
2024/01/30 10:55:07;;;;;;;11.93;9.98;;;7.00;99.90;;;;;;4893750;28;20564;-60
2024/01/30 10:57:35;;;;;;;13.15;9.65;;;7.10;99.90;;;;;;4890109;28;20033;-60
2024/01/30 11:00:05;;;;;;;14.02;9.90;;;7.10;99.90;;;;;;4942998;28;20049;-59
2024/01/30 11:02:32;;;;;;;18.73;10.38;;;7.20;99.90;;;;;;4952432;28;20034;-59
2024/01/30 11:04:59;;;;;;;13.68;9.55;;;7.20;99.90;;;;;;4928828;28;20054;-60
2024/01/30 11:07:29;;;;;;;12.25;8.35;;;7.30;99.90;;;;;;4893723;28;20041;-59
2024/01/30 11:09:57;;;;;;;17.73;11.43;;;7.40;99.90;;;;;;4900676;28;20038;-59
2024/01/30 11:12:24;;;;;;;16.95;10.75;;;7.40;99.90;;;;;;4962916;28;20116;-60
2024/01/30 11:15:04;;;;;;;18.75;11.23;;;7.50;99.90;;;;;;4892643;28;20045;-58
2024/01/30 11:17:59;;;;;;;21.58;13.23;;;7.60;99.90;;;;;;4956597;28;20038;-59
2024/01/30 11:20:33;;;;;;;15.32;9.60;;;7.60;99.90;;;;;;4955177;28;20057;-60
2024/01/30 11:22:59;;;;;;;14.07;9.70;;;7.70;99.90;;;;;;4886032;28;20034;-59
2024/01/30 11:25:26;;;;;;;12.43;9.45;;;7.70;99.90;;;;;;4932947;28;20038;-60
2024/01/30 11:27:55;;;;;;;11.75;9.73;;;7.70;99.90;;;;;;4972965;28;20027;-59
2024/01/30 11:30:25;;;;;;;11.70;9.43;;;7.80;99.90;;;;;;4981625;28;20048;-60
2024/01/30 11:33:00;;;;;;;13.52;9.45;;;7.80;99.90;;;;;;4972524;28;20030;-59
2024/01/30 11:35:26;;;;;;;11.27;9.00;;;7.80;99.90;;;;;;4963705;28;20026;-60
2024/01/30 11:37:54;;;;;;;12.25;9.90;;;7.90;99.90;;;;;;4973608;28;20054;-61
2024/01/30 11:40:19;;;;;;;17.50;10.57;;;7.90;99.90;;;;;;4977784;28;20501;-60
2024/01/30 11:42:46;;;;;;;11.77;9.18;;;7.90;99.90;;;;;;4976170;28;20026;-60
2024/01/30 11:45:12;;;;;;;13.68;9.50;;;7.90;99.90;;;;;;4967195;28;20391;-61
2024/01/30 11:47:38;;;;;;;12.73;9.48;;;8.00;99.90;;;;;;4962126;28;20030;-59
2024/01/30 11:50:06;;;;;;;11.60;8.55;;;8.00;99.90;;;;;;4973479;28;20110;-58
2024/01/30 11:52:33;;;;;;;14.88;9.80;;;8.00;99.90;;;;;;4976528;28;20058;-60
2024/01/30 11:55:00;;;;;;;11.30;8.90;;;8.00;99.90;;;;;;4975348;28;20137;-59
2024/01/30 11:57:27;;;;;;;12.27;8.88;;;8.00;99.90;;;;;;4986335;28;20109;-60
2024/01/30 11:59:52;;;;;;;15.50;9.65;;;8.00;99.90;;;;;;4975359;28;20054;-58
2024/01/30 12:02:18;;;;;;;15.32;9.75;;;8.00;99.90;;;;;;4976708;28;20030;-60
2024/01/30 12:04:44;;;;;;;14.88;9.73;;;8.00;99.90;;;;;;4974864;28;20436;-60
2024/01/30 12:07:10;;;;;;;13.85;10.23;;;8.00;99.90;;;;;;4970538;28;20042;-60
2024/01/30 12:09:36;;;;;;;13.30;10.93;;;8.00;99.90;;;;;;4970732;28;20117;-60
2024/01/30 12:12:01;;;;;;;15.45;9.50;;;8.00;99.90;;;;;;4986243;28;20114;-59
2024/01/30 12:14:27;;;;;;;12.43;8.85;;;8.00;99.90;;;;;;4977536;28;20050;-60
2024/01/30 12:16:52;;;;;;;13.95;9.63;;;8.00;99.90;;;;;;4974009;28;20030;-60
2024/01/30 12:19:22;;;;;;;16.20;9.60;;;8.00;99.90;;;;;;4970148;28;20034;-60
2024/01/30 12:21:54;;;;;;;11.35;8.48;;;8.10;99.90;;;;;;4969933;28;20617;-60
2024/01/30 12:24:20;;;;;;;15.27;9.05;;;8.00;99.90;;;;;;4985087;28;20057;-59
2024/01/30 12:26:46;;;;;;;13.27;9.50;;;8.10;99.90;;;;;;4970375;28;20059;-60
2024/01/30 12:29:11;;;;;;;10.73;8.85;;;8.10;99.90;;;;;;4965875;28;20030;-60
2024/01/30 12:31:37;;;;;;;11.48;9.05;;;8.10;99.90;;;;;;4963827;28;20035;-60
2024/01/30 12:34:02;;;;;;;15.45;9.20;;;8.10;99.90;;;;;;4965634;28;20076;-60
2024/01/30 12:36:30;;;;;;;13.70;8.95;;;8.10;99.90;;;;;;4979798;28;20034;-58
2024/01/30 12:38:57;;;;;;;10.65;7.70;;;8.10;99.90;;;;;;4971440;28;20026;-59
2024/01/30 12:41:27;;;;;;;10.27;7.43;;;8.20;99.90;;;;;;4970348;28;20450;-59
2024/01/30 12:43:53;;;;;;;12.93;8.68;;;8.10;99.90;;;;;;4963471;28;20644;-58